sensor_id;sensor_type;location;lat;lon;timestamp;temperature;humidity
76040;SHT30;64736;50.462;4.850;2023-04-07T00:00:53;8.46;96.61
76040;SHT30;64736;50.462;4.850;2023-04-07T00:03:18;8.46;96.67
76040;SHT30;64736;50.462;4.850;2023-04-07T00:05:44;8.50;96.66
76040;SHT30;64736;50.462;4.850;2023-04-07T00:08:10;8.47;96.57
76040;SHT30;64736;50.462;4.850;2023-04-07T00:10:35;8.44;96.49
76040;SHT30;64736;50.462;4.850;2023-04-07T00:13:01;8.46;96.50
76040;SHT30;64736;50.462;4.850;2023-04-07T00:15:27;8.46;96.49
76040;SHT30;64736;50.462;4.850;2023-04-07T00:17:53;8.47;96.53
76040;SHT30;64736;50.462;4.850;2023-04-07T00:20:19;8.46;96.47
76040;SHT30;64736;50.462;4.850;2023-04-07T00:22:45;8.47;96.47
76040;SHT30;64736;50.462;4.850;2023-04-07T00:25:10;8.44;96.39
76040;SHT30;64736;50.462;4.850;2023-04-07T00:27:37;8.46;96.32
76040;SHT30;64736;50.462;4.850;2023-04-07T00:30:03;8.43;96.33
76040;SHT30;64736;50.462;4.850;2023-04-07T00:32:29;8.43;96.29
76040;SHT30;64736;50.462;4.850;2023-04-07T00:34:54;8.46;96.27
76040;SHT30;64736;50.462;4.850;2023-04-07T00:37:20;8.47;96.23
76040;SHT30;64736;50.462;4.850;2023-04-07T00:39:46;8.44;96.23
76040;SHT30;64736;50.462;4.850;2023-04-07T00:42:12;8.51;96.24
76040;SHT30;64736;50.462;4.850;2023-04-07T00:44:37;8.53;96.32
76040;SHT30;64736;50.462;4.850;2023-04-07T00:47:03;8.53;96.27
76040;SHT30;64736;50.462;4.850;2023-04-07T00:49:29;8.56;96.24
76040;SHT30;64736;50.462;4.850;2023-04-07T00:51:56;8.56;96.27
76040;SHT30;64736;50.462;4.850;2023-04-07T00:54:23;8.51;96.22
76040;SHT30;64736;50.462;4.850;2023-04-07T00:56:49;8.53;96.12
76040;SHT30;64736;50.462;4.850;2023-04-07T00:59:15;8.51;96.17
76040;SHT30;64736;50.462;4.850;2023-04-07T01:01:50;8.51;96.22
76040;SHT30;64736;50.462;4.850;2023-04-07T01:04:34;8.50;96.19
76040;SHT30;64736;50.462;4.850;2023-04-07T01:07:05;8.54;96.13
76040;SHT30;64736;50.462;4.850;2023-04-07T01:09:47;8.56;96.23
76040;SHT30;64736;50.462;4.850;2023-04-07T01:12:38;8.54;96.17
76040;SHT30;64736;50.462;4.850;2023-04-07T01:15:11;8.50;96.10
76040;SHT30;64736;50.462;4.850;2023-04-07T01:17:42;8.50;96.06
76040;SHT30;64736;50.462;4.850;2023-04-07T01:20:16;8.51;96.06
76040;SHT30;64736;50.462;4.850;2023-04-07T01:22:50;8.49;96.05
76040;SHT30;64736;50.462;4.850;2023-04-07T01:28:33;8.41;96.06
76040;SHT30;64736;50.462;4.850;2023-04-07T01:31:07;8.39;96.09
76040;SHT30;64736;50.462;4.850;2023-04-07T01:33:35;8.34;96.16
76040;SHT30;64736;50.462;4.850;2023-04-07T01:36:02;8.32;96.11
76040;SHT30;64736;50.462;4.850;2023-04-07T01:38:29;8.30;96.12
76040;SHT30;64736;50.462;4.850;2023-04-07T01:40:57;8.30;96.12
76040;SHT30;64736;50.462;4.850;2023-04-07T01:43:24;8.29;95.98
76040;SHT30;64736;50.462;4.850;2023-04-07T01:45:53;8.29;95.99
76040;SHT30;64736;50.462;4.850;2023-04-07T01:48:20;8.29;96.01
76040;SHT30;64736;50.462;4.850;2023-04-07T01:50:46;8.30;96.02
76040;SHT30;64736;50.462;4.850;2023-04-07T01:53:14;8.26;96.02
76040;SHT30;64736;50.462;4.850;2023-04-07T01:55:41;8.23;95.91
76040;SHT30;64736;50.462;4.850;2023-04-07T01:58:08;8.20;95.89
76040;SHT30;64736;50.462;4.850;2023-04-07T02:00:34;8.20;95.76
76040;SHT30;64736;50.462;4.850;2023-04-07T02:03:30;8.25;95.93
76040;SHT30;64736;50.462;4.850;2023-04-07T02:06:01;8.22;95.77
76040;SHT30;64736;50.462;4.850;2023-04-07T02:08:29;8.25;95.72
76040;SHT30;64736;50.462;4.850;2023-04-07T02:10:57;8.23;95.66
76040;SHT30;64736;50.462;4.850;2023-04-07T02:13:26;8.30;95.77
76040;SHT30;64736;50.462;4.850;2023-04-07T02:15:53;8.30;95.62
76040;SHT30;64736;50.462;4.850;2023-04-07T02:18:21;8.25;95.36
76040;SHT30;64736;50.462;4.850;2023-04-07T02:20:47;8.30;95.50
76040;SHT30;64736;50.462;4.850;2023-04-07T02:23:14;8.32;95.51
76040;SHT30;64736;50.462;4.850;2023-04-07T02:25:40;8.34;95.62
76040;SHT30;64736;50.462;4.850;2023-04-07T02:28:06;8.32;95.46
76040;SHT30;64736;50.462;4.850;2023-04-07T02:30:33;8.26;95.30
76040;SHT30;64736;50.462;4.850;2023-04-07T02:32:58;8.25;95.35
76040;SHT30;64736;50.462;4.850;2023-04-07T02:35:24;8.29;95.42
76040;SHT30;64736;50.462;4.850;2023-04-07T02:37:50;8.22;95.35
76040;SHT30;64736;50.462;4.850;2023-04-07T02:40:16;8.23;95.38
76040;SHT30;64736;50.462;4.850;2023-04-07T02:42:42;8.22;95.34
76040;SHT30;64736;50.462;4.850;2023-04-07T02:45:08;8.25;95.41
76040;SHT30;64736;50.462;4.850;2023-04-07T02:47:35;8.25;95.42
76040;SHT30;64736;50.462;4.850;2023-04-07T02:50:02;8.23;95.38
76040;SHT30;64736;50.462;4.850;2023-04-07T02:52:27;8.20;95.30
76040;SHT30;64736;50.462;4.850;2023-04-07T02:54:53;8.26;95.37
76040;SHT30;64736;50.462;4.850;2023-04-07T02:57:19;8.19;95.18
76040;SHT30;64736;50.462;4.850;2023-04-07T02:59:45;8.22;95.37
76040;SHT30;64736;50.462;4.850;2023-04-07T03:02:10;8.23;95.38
76040;SHT30;64736;50.462;4.850;2023-04-07T03:04:36;8.22;95.35
76040;SHT30;64736;50.462;4.850;2023-04-07T03:07:02;8.19;95.37
76040;SHT30;64736;50.462;4.850;2023-04-07T03:09:28;8.20;95.35
76040;SHT30;64736;50.462;4.850;2023-04-07T03:11:53;8.22;95.40
76040;SHT30;64736;50.462;4.850;2023-04-07T03:14:20;8.22;95.43
76040;SHT30;64736;50.462;4.850;2023-04-07T03:16:46;8.17;95.38
76040;SHT30;64736;50.462;4.850;2023-04-07T03:19:12;8.23;95.45
76040;SHT30;64736;50.462;4.850;2023-04-07T03:21:38;8.26;95.31
76040;SHT30;64736;50.462;4.850;2023-04-07T03:24:07;8.28;95.27
76040;SHT30;64736;50.462;4.850;2023-04-07T03:26:33;8.30;95.35
76040;SHT30;64736;50.462;4.850;2023-04-07T03:28:59;8.29;95.23
76040;SHT30;64736;50.462;4.850;2023-04-07T03:31:25;8.22;95.30
76040;SHT30;64736;50.462;4.850;2023-04-07T03:33:51;8.25;95.27
76040;SHT30;64736;50.462;4.850;2023-04-07T03:36:17;8.25;95.08
76040;SHT30;64736;50.462;4.850;2023-04-07T03:38:45;8.22;95.15
76040;SHT30;64736;50.462;4.850;2023-04-07T03:41:11;8.20;95.17
76040;SHT30;64736;50.462;4.850;2023-04-07T03:43:37;8.14;95.40
76040;SHT30;64736;50.462;4.850;2023-04-07T03:46:03;8.17;95.64
76040;SHT30;64736;50.462;4.850;2023-04-07T03:48:29;8.16;95.72
76040;SHT30;64736;50.462;4.850;2023-04-07T03:50:54;8.07;95.68
76040;SHT30;64736;50.462;4.850;2023-04-07T03:53:20;8.02;95.52
76040;SHT30;64736;50.462;4.850;2023-04-07T03:55:46;8.14;96.03
76040;SHT30;64736;50.462;4.850;2023-04-07T03:58:12;8.25;96.03
76040;SHT30;64736;50.462;4.850;2023-04-07T04:00:38;8.25;96.07
76040;SHT30;64736;50.462;4.850;2023-04-07T04:03:04;8.23;95.89
76040;SHT30;64736;50.462;4.850;2023-04-07T04:05:30;8.19;95.74
76040;SHT30;64736;50.462;4.850;2023-04-07T04:07:56;8.19;95.81
76040;SHT30;64736;50.462;4.850;2023-04-07T04:10:21;8.06;95.50
76040;SHT30;64736;50.462;4.850;2023-04-07T04:12:48;8.17;95.75
76040;SHT30;64736;50.462;4.850;2023-04-07T04:15:14;8.14;95.66
76040;SHT30;64736;50.462;4.850;2023-04-07T04:17:40;8.12;95.51
76040;SHT30;64736;50.462;4.850;2023-04-07T04:20:07;8.09;95.59
76040;SHT30;64736;50.462;4.850;2023-04-07T04:22:33;8.01;95.54
76040;SHT30;64736;50.462;4.850;2023-04-07T04:24:59;8.02;95.64
76040;SHT30;64736;50.462;4.850;2023-04-07T04:27:25;8.01;95.70
76040;SHT30;64736;50.462;4.850;2023-04-07T04:29:51;7.78;95.34
76040;SHT30;64736;50.462;4.850;2023-04-07T04:32:18;7.98;95.48
76040;SHT30;64736;50.462;4.850;2023-04-07T04:34:44;8.03;95.66
76040;SHT30;64736;50.462;4.850;2023-04-07T04:37:10;8.01;95.70
76040;SHT30;64736;50.462;4.850;2023-04-07T04:39:36;7.95;95.59
76040;SHT30;64736;50.462;4.850;2023-04-07T04:42:01;7.96;95.74
76040;SHT30;64736;50.462;4.850;2023-04-07T04:44:28;7.96;95.72
76040;SHT30;64736;50.462;4.850;2023-04-07T04:46:54;7.95;95.74
76040;SHT30;64736;50.462;4.850;2023-04-07T04:49:21;7.89;95.77
76040;SHT30;64736;50.462;4.850;2023-04-07T04:51:47;7.91;95.74
76040;SHT30;64736;50.462;4.850;2023-04-07T04:54:13;8.06;96.14
76040;SHT30;64736;50.462;4.850;2023-04-07T04:56:38;8.02;95.81
76040;SHT30;64736;50.462;4.850;2023-04-07T04:59:04;7.92;95.42
76040;SHT30;64736;50.462;4.850;2023-04-07T05:01:30;7.99;95.58
76040;SHT30;64736;50.462;4.850;2023-04-07T05:03:56;7.75;94.91
76040;SHT30;64736;50.462;4.850;2023-04-07T05:06:22;7.77;95.30
76040;SHT30;64736;50.462;4.850;2023-04-07T05:08:48;7.89;95.60
76040;SHT30;64736;50.462;4.850;2023-04-07T05:11:13;7.98;95.70
76040;SHT30;64736;50.462;4.850;2023-04-07T05:13:39;7.98;95.56
76040;SHT30;64736;50.462;4.850;2023-04-07T05:16:05;7.91;95.41
76040;SHT30;64736;50.462;4.850;2023-04-07T05:18:31;7.85;95.44
76040;SHT30;64736;50.462;4.850;2023-04-07T05:20:57;7.85;95.58
76040;SHT30;64736;50.462;4.850;2023-04-07T05:23:23;7.91;95.70
76040;SHT30;64736;50.462;4.850;2023-04-07T05:25:49;7.91;95.69
76040;SHT30;64736;50.462;4.850;2023-04-07T05:28:15;7.91;95.86
76040;SHT30;64736;50.462;4.850;2023-04-07T05:30:40;7.86;95.83
76040;SHT30;64736;50.462;4.850;2023-04-07T05:33:06;7.64;94.77
76040;SHT30;64736;50.462;4.850;2023-04-07T05:35:32;7.81;95.20
76040;SHT30;64736;50.462;4.850;2023-04-07T05:37:57;7.82;95.33
76040;SHT30;64736;50.462;4.850;2023-04-07T05:40:23;7.74;95.18
76040;SHT30;64736;50.462;4.850;2023-04-07T05:42:49;7.92;95.55
76040;SHT30;64736;50.462;4.850;2023-04-07T05:45:15;7.70;94.83
76040;SHT30;64736;50.462;4.850;2023-04-07T05:47:41;7.72;94.76
76040;SHT30;64736;50.462;4.850;2023-04-07T05:50:07;7.70;94.80
76040;SHT30;64736;50.462;4.850;2023-04-07T05:52:33;7.71;94.70
76040;SHT30;64736;50.462;4.850;2023-04-07T05:54:58;7.86;94.65
76040;SHT30;64736;50.462;4.850;2023-04-07T05:57:24;7.70;93.42
76040;SHT30;64736;50.462;4.850;2023-04-07T05:59:52;7.78;93.94
76040;SHT30;64736;50.462;4.850;2023-04-07T06:02:18;7.72;93.53
76040;SHT30;64736;50.462;4.850;2023-04-07T06:04:44;7.79;93.83
76040;SHT30;64736;50.462;4.850;2023-04-07T06:07:10;7.71;93.16
76040;SHT30;64736;50.462;4.850;2023-04-07T06:09:36;7.93;93.21
76040;SHT30;64736;50.462;4.850;2023-04-07T06:12:01;7.81;92.87
76040;SHT30;64736;50.462;4.850;2023-04-07T06:14:29;7.74;92.46
76040;SHT30;64736;50.462;4.850;2023-04-07T06:16:55;7.77;92.64
76040;SHT30;64736;50.462;4.850;2023-04-07T06:19:21;7.74;92.54
76040;SHT30;64736;50.462;4.850;2023-04-07T06:21:48;7.89;93.09
76040;SHT30;64736;50.462;4.850;2023-04-07T06:24:14;7.86;92.90
76040;SHT30;64736;50.462;4.850;2023-04-07T06:26:40;7.84;92.89
76040;SHT30;64736;50.462;4.850;2023-04-07T06:29:05;7.79;92.92
76040;SHT30;64736;50.462;4.850;2023-04-07T06:31:31;7.91;92.93
76040;SHT30;64736;50.462;4.850;2023-04-07T06:33:57;7.96;93.07
76040;SHT30;64736;50.462;4.850;2023-04-07T06:36:23;7.82;92.42
76040;SHT30;64736;50.462;4.850;2023-04-07T06:38:49;8.06;93.49
76040;SHT30;64736;50.462;4.850;2023-04-07T06:41:15;8.03;92.43
76040;SHT30;64736;50.462;4.850;2023-04-07T06:43:47;8.12;92.55
76040;SHT30;64736;50.462;4.850;2023-04-07T06:46:13;7.95;92.13
76040;SHT30;64736;50.462;4.850;2023-04-07T06:48:39;8.07;92.51
76040;SHT30;64736;50.462;4.850;2023-04-07T06:51:05;8.13;92.12
76040;SHT30;64736;50.462;4.850;2023-04-07T06:53:30;8.14;92.20
76040;SHT30;64736;50.462;4.850;2023-04-07T06:56:07;8.34;93.15
76040;SHT30;64736;50.462;4.850;2023-04-07T06:58:34;8.25;93.15
76040;SHT30;64736;50.462;4.850;2023-04-07T07:01:00;8.46;93.33
76040;SHT30;64736;50.462;4.850;2023-04-07T07:03:27;8.10;92.00
76040;SHT30;64736;50.462;4.850;2023-04-07T07:05:54;7.99;91.68
76040;SHT30;64736;50.462;4.850;2023-04-07T07:08:23;8.30;92.27
76040;SHT30;64736;50.462;4.850;2023-04-07T07:10:49;8.44;91.91
76040;SHT30;64736;50.462;4.850;2023-04-07T07:13:15;8.33;91.33
76040;SHT30;64736;50.462;4.850;2023-04-07T07:15:41;8.20;90.75
76040;SHT30;64736;50.462;4.850;2023-04-07T07:18:06;8.10;90.17
76040;SHT30;64736;50.462;4.850;2023-04-07T07:20:32;8.43;91.46
76040;SHT30;64736;50.462;4.850;2023-04-07T07:22:58;8.51;90.55
76040;SHT30;64736;50.462;4.850;2023-04-07T07:25:24;8.28;90.49
76040;SHT30;64736;50.462;4.850;2023-04-07T07:27:53;8.23;90.64
76040;SHT30;64736;50.462;4.850;2023-04-07T07:30:20;8.44;90.29
76040;SHT30;64736;50.462;4.850;2023-04-07T07:32:46;8.23;90.29
76040;SHT30;64736;50.462;4.850;2023-04-07T07:35:12;8.41;90.42
76040;SHT30;64736;50.462;4.850;2023-04-07T07:37:38;8.39;90.01
76040;SHT30;64736;50.462;4.850;2023-04-07T07:40:03;8.40;89.85
76040;SHT30;64736;50.462;4.850;2023-04-07T07:42:30;8.50;89.68
76040;SHT30;64736;50.462;4.850;2023-04-07T07:44:56;8.60;89.61
76040;SHT30;64736;50.462;4.850;2023-04-07T07:47:22;8.40;90.24
76040;SHT30;64736;50.462;4.850;2023-04-07T07:49:48;8.44;89.21
76040;SHT30;64736;50.462;4.850;2023-04-07T07:52:14;8.63;89.16
76040;SHT30;64736;50.462;4.850;2023-04-07T07:54:40;8.78;88.08
76040;SHT30;64736;50.462;4.850;2023-04-07T07:57:05;8.75;87.43
76040;SHT30;64736;50.462;4.850;2023-04-07T07:59:31;8.89;87.41
76040;SHT30;64736;50.462;4.850;2023-04-07T08:01:57;9.11;87.78
76040;SHT30;64736;50.462;4.850;2023-04-07T08:04:23;9.57;86.26
76040;SHT30;64736;50.462;4.850;2023-04-07T08:06:50;9.36;85.17
76040;SHT30;64736;50.462;4.850;2023-04-07T08:09:17;8.72;86.39
76040;SHT30;64736;50.462;4.850;2023-04-07T08:11:43;9.04;87.34
76040;SHT30;64736;50.462;4.850;2023-04-07T08:14:09;8.88;87.39
76040;SHT30;64736;50.462;4.850;2023-04-07T08:16:35;9.05;87.10
76040;SHT30;64736;50.462;4.850;2023-04-07T08:19:00;9.42;87.72
76040;SHT30;64736;50.462;4.850;2023-04-07T08:21:27;9.09;85.19
76040;SHT30;64736;50.462;4.850;2023-04-07T08:23:53;9.19;86.20
76040;SHT30;64736;50.462;4.850;2023-04-07T08:26:20;9.36;85.30
76040;SHT30;64736;50.462;4.850;2023-04-07T08:28:47;9.77;84.68
76040;SHT30;64736;50.462;4.850;2023-04-07T08:31:14;9.78;84.26
76040;SHT30;64736;50.462;4.850;2023-04-07T08:33:40;9.71;82.75
76040;SHT30;64736;50.462;4.850;2023-04-07T08:36:06;9.63;82.17
76040;SHT30;64736;50.462;4.850;2023-04-07T08:38:32;9.78;82.15
76040;SHT30;64736;50.462;4.850;2023-04-07T08:41:09;9.83;81.73
76040;SHT30;64736;50.462;4.850;2023-04-07T08:43:37;9.94;82.06
76040;SHT30;64736;50.462;4.850;2023-04-07T08:46:03;10.02;80.62
76040;SHT30;64736;50.462;4.850;2023-04-07T08:48:31;10.39;81.07
76040;SHT30;64736;50.462;4.850;2023-04-07T08:51:07;10.02;79.68
76040;SHT30;64736;50.462;4.850;2023-04-07T08:53:48;10.29;78.52
76040;SHT30;64736;50.462;4.850;2023-04-07T08:56:19;10.18;78.57
76040;SHT30;64736;50.462;4.850;2023-04-07T08:58:48;9.84;79.11
76040;SHT30;64736;50.462;4.850;2023-04-07T09:01:14;9.99;79.04
76040;SHT30;64736;50.462;4.850;2023-04-07T09:03:43;9.77;79.30
76040;SHT30;64736;50.462;4.850;2023-04-07T09:06:09;10.05;79.26
76040;SHT30;64736;50.462;4.850;2023-04-07T09:08:36;9.85;77.97
76040;SHT30;64736;50.462;4.850;2023-04-07T09:11:02;10.08;78.87
76040;SHT30;64736;50.462;4.850;2023-04-07T09:13:28;9.87;78.65
76040;SHT30;64736;50.462;4.850;2023-04-07T09:15:53;10.35;77.56
76040;SHT30;64736;50.462;4.850;2023-04-07T09:18:20;10.52;75.28
76040;SHT30;64736;50.462;4.850;2023-04-07T09:21:00;11.58;74.92
76040;SHT30;64736;50.462;4.850;2023-04-07T09:25:59;10.97;76.50
76040;SHT30;64736;50.462;4.850;2023-04-07T09:28:41;10.26;74.97
76040;SHT30;64736;50.462;4.850;2023-04-07T09:31:07;9.99;76.02
76040;SHT30;64736;50.462;4.850;2023-04-07T09:33:33;10.01;76.99
76040;SHT30;64736;50.462;4.850;2023-04-07T09:35:59;10.18;77.82
76040;SHT30;64736;50.462;4.850;2023-04-07T09:38:36;10.12;76.02
76040;SHT30;64736;50.462;4.850;2023-04-07T09:41:13;10.08;75.84
76040;SHT30;64736;50.462;4.850;2023-04-07T09:43:41;10.36;75.71
76040;SHT30;64736;50.462;4.850;2023-04-07T09:46:18;10.23;76.45
76040;SHT30;64736;50.462;4.850;2023-04-07T09:48:45;10.04;76.23
76040;SHT30;64736;50.462;4.850;2023-04-07T09:51:15;10.14;76.84
76040;SHT30;64736;50.462;4.850;2023-04-07T09:53:50;10.14;77.64
76040;SHT30;64736;50.462;4.850;2023-04-07T09:56:20;10.04;77.13
76040;SHT30;64736;50.462;4.850;2023-04-07T09:58:49;9.87;77.79
76040;SHT30;64736;50.462;4.850;2023-04-07T10:01:20;10.06;77.44
76040;SHT30;64736;50.462;4.850;2023-04-07T10:03:47;9.70;78.51
76040;SHT30;64736;50.462;4.850;2023-04-07T10:06:13;9.99;77.98
76040;SHT30;64736;50.462;4.850;2023-04-07T10:08:41;10.02;79.15
76040;SHT30;64736;50.462;4.850;2023-04-07T10:11:08;9.90;78.20
76040;SHT30;64736;50.462;4.850;2023-04-07T10:13:35;10.14;77.30
76040;SHT30;64736;50.462;4.850;2023-04-07T10:16:06;11.77;73.87
76040;SHT30;64736;50.462;4.850;2023-04-07T10:18:33;11.93;69.61
76040;SHT30;64736;50.462;4.850;2023-04-07T10:21:04;12.62;69.11
76040;SHT30;64736;50.462;4.850;2023-04-07T10:23:53;14.22;62.88
76040;SHT30;64736;50.462;4.850;2023-04-07T10:26:26;13.10;65.04
76040;SHT30;64736;50.462;4.850;2023-04-07T10:28:59;14.04;65.14
76040;SHT30;64736;50.462;4.850;2023-04-07T10:31:27;11.34;70.79
76040;SHT30;64736;50.462;4.850;2023-04-07T10:33:53;10.89;72.68
76040;SHT30;64736;50.462;4.850;2023-04-07T10:36:21;11.27;72.09
76040;SHT30;64736;50.462;4.850;2023-04-07T10:41:40;10.60;72.90
76040;SHT30;64736;50.462;4.850;2023-04-07T10:44:08;10.59;72.20
76040;SHT30;64736;50.462;4.850;2023-04-07T10:47:01;11.07;70.77
76040;SHT30;64736;50.462;4.850;2023-04-07T10:49:28;11.28;70.95
76040;SHT30;64736;50.462;4.850;2023-04-07T10:52:27;12.01;68.43
76040;SHT30;64736;50.462;4.850;2023-04-07T10:55:27;11.40;71.09
76040;SHT30;64736;50.462;4.850;2023-04-07T10:58:15;11.75;70.25
76040;SHT30;64736;50.462;4.850;2023-04-07T11:00:43;11.18;69.69
76040;SHT30;64736;50.462;4.850;2023-04-07T11:03:30;11.56;67.35
76040;SHT30;64736;50.462;4.850;2023-04-07T11:06:06;10.97;69.50
76040;SHT30;64736;50.462;4.850;2023-04-07T11:08:42;11.21;70.17
76040;SHT30;64736;50.462;4.850;2023-04-07T11:11:12;11.06;70.59
76040;SHT30;64736;50.462;4.850;2023-04-07T11:13:46;10.66;72.44
76040;SHT30;64736;50.462;4.850;2023-04-07T11:16:13;11.14;71.04
76040;SHT30;64736;50.462;4.850;2023-04-07T11:18:39;11.18;71.32
76040;SHT30;64736;50.462;4.850;2023-04-07T11:21:06;11.58;69.31
76040;SHT30;64736;50.462;4.850;2023-04-07T11:23:43;11.45;68.46
76040;SHT30;64736;50.462;4.850;2023-04-07T11:26:11;12.16;67.08
76040;SHT30;64736;50.462;4.850;2023-04-07T11:28:53;12.28;64.97
76040;SHT30;64736;50.462;4.850;2023-04-07T11:31:24;12.48;65.56
76040;SHT30;64736;50.462;4.850;2023-04-07T11:33:58;12.13;67.08
76040;SHT30;64736;50.462;4.850;2023-04-07T11:36:28;12.07;65.88
76040;SHT30;64736;50.462;4.850;2023-04-07T11:38:55;12.46;64.51
76040;SHT30;64736;50.462;4.850;2023-04-07T11:41:22;12.28;64.64
76040;SHT30;64736;50.462;4.850;2023-04-07T11:44:10;13.55;62.49
76040;SHT30;64736;50.462;4.850;2023-04-07T11:46:36;13.89;60.21
76040;SHT30;64736;50.462;4.850;2023-04-07T11:49:10;12.79;62.66
76040;SHT30;64736;50.462;4.850;2023-04-07T11:51:36;13.43;62.20
76040;SHT30;64736;50.462;4.850;2023-04-07T11:54:02;14.29;58.34
76040;SHT30;64736;50.462;4.850;2023-04-07T11:56:28;13.51;61.18
76040;SHT30;64736;50.462;4.850;2023-04-07T11:58:55;14.38;60.13
76040;SHT30;64736;50.462;4.850;2023-04-07T12:01:21;13.07;62.54
76040;SHT30;64736;50.462;4.850;2023-04-07T12:04:02;13.50;59.87
76040;SHT30;64736;50.462;4.850;2023-04-07T12:06:33;13.02;63.45
76040;SHT30;64736;50.462;4.850;2023-04-07T12:09:01;12.66;64.39
76040;SHT30;64736;50.462;4.850;2023-04-07T12:11:28;14.12;61.43
76040;SHT30;64736;50.462;4.850;2023-04-07T12:13:54;12.54;65.02
76040;SHT30;64736;50.462;4.850;2023-04-07T12:16:21;12.07;66.89
76040;SHT30;64736;50.462;4.850;2023-04-07T12:18:47;11.91;67.30
76040;SHT30;64736;50.462;4.850;2023-04-07T12:21:13;13.07;66.45
76040;SHT30;64736;50.462;4.850;2023-04-07T12:23:40;13.81;61.52
76040;SHT30;64736;50.462;4.850;2023-04-07T12:26:06;13.75;60.57
76040;SHT30;64736;50.462;4.850;2023-04-07T12:28:32;13.44;62.13
76040;SHT30;64736;50.462;4.850;2023-04-07T12:30:58;12.52;64.13
76040;SHT30;64736;50.462;4.850;2023-04-07T12:33:24;12.06;64.73
76040;SHT30;64736;50.462;4.850;2023-04-07T12:35:50;12.71;62.41
76040;SHT30;64736;50.462;4.850;2023-04-07T12:38:16;12.65;63.79
76040;SHT30;64736;50.462;4.850;2023-04-07T12:40:42;12.13;65.42
76040;SHT30;64736;50.462;4.850;2023-04-07T12:43:08;12.34;65.36
76040;SHT30;64736;50.462;4.850;2023-04-07T12:45:34;11.97;66.14
76040;SHT30;64736;50.462;4.850;2023-04-07T12:48:00;12.01;65.05
76040;SHT30;64736;50.462;4.850;2023-04-07T12:50:26;12.20;65.90
76040;SHT30;64736;50.462;4.850;2023-04-07T12:52:52;11.75;66.46
76040;SHT30;64736;50.462;4.850;2023-04-07T12:55:19;11.90;67.21
76040;SHT30;64736;50.462;4.850;2023-04-07T12:57:44;11.90;67.79
76040;SHT30;64736;50.462;4.850;2023-04-07T13:00:12;12.27;68.53
76040;SHT30;64736;50.462;4.850;2023-04-07T13:02:41;12.03;68.39
76040;SHT30;64736;50.462;4.850;2023-04-07T13:05:07;11.66;69.56
76040;SHT30;64736;50.462;4.850;2023-04-07T13:07:33;11.63;69.94
76040;SHT30;64736;50.462;4.850;2023-04-07T13:10:01;12.08;68.69
76040;SHT30;64736;50.462;4.850;2023-04-07T13:12:27;11.82;70.19
76040;SHT30;64736;50.462;4.850;2023-04-07T13:14:53;11.19;70.73
76040;SHT30;64736;50.462;4.850;2023-04-07T13:17:18;11.11;71.09
76040;SHT30;64736;50.462;4.850;2023-04-07T13:19:44;11.24;71.15
76040;SHT30;64736;50.462;4.850;2023-04-07T13:22:13;11.14;71.77
76040;SHT30;64736;50.462;4.850;2023-04-07T13:24:39;11.63;70.54
76040;SHT30;64736;50.462;4.850;2023-04-07T13:27:05;11.28;71.75
76040;SHT30;64736;50.462;4.850;2023-04-07T13:29:31;11.34;71.11
76040;SHT30;64736;50.462;4.850;2023-04-07T13:32:04;11.65;70.64
76040;SHT30;64736;50.462;4.850;2023-04-07T13:34:30;11.49;70.64
76040;SHT30;64736;50.462;4.850;2023-04-07T13:36:56;11.67;70.10
76040;SHT30;64736;50.462;4.850;2023-04-07T13:39:22;12.07;68.99
76040;SHT30;64736;50.462;4.850;2023-04-07T13:41:47;12.27;68.69
76040;SHT30;64736;50.462;4.850;2023-04-07T13:44:13;12.33;67.95
76040;SHT30;64736;50.462;4.850;2023-04-07T13:46:39;12.14;68.36
76040;SHT30;64736;50.462;4.850;2023-04-07T13:49:05;11.79;69.19
76040;SHT30;64736;50.462;4.850;2023-04-07T13:51:31;12.00;69.38
76040;SHT30;64736;50.462;4.850;2023-04-07T13:53:58;12.41;67.95
76040;SHT30;64736;50.462;4.850;2023-04-07T13:56:24;12.06;68.62
76040;SHT30;64736;50.462;4.850;2023-04-07T13:58:50;11.91;69.39
76040;SHT30;64736;50.462;4.850;2023-04-07T14:01:16;12.41;69.26
76040;SHT30;64736;50.462;4.850;2023-04-07T14:03:42;12.59;67.79
76040;SHT30;64736;50.462;4.850;2023-04-07T14:06:07;11.56;70.40
76040;SHT30;64736;50.462;4.850;2023-04-07T14:08:33;11.19;71.30
76040;SHT30;64736;50.462;4.850;2023-04-07T14:10:59;11.19;72.12
76040;SHT30;64736;50.462;4.850;2023-04-07T14:13:25;11.03;72.43
76040;SHT30;64736;50.462;4.850;2023-04-07T14:15:51;11.14;71.02
76040;SHT30;64736;50.462;4.850;2023-04-07T14:18:18;11.10;70.91
76040;SHT30;64736;50.462;4.850;2023-04-07T14:20:44;11.55;70.33
76040;SHT30;64736;50.462;4.850;2023-04-07T14:23:09;11.85;68.96
76040;SHT30;64736;50.462;4.850;2023-04-07T14:25:35;11.54;69.08
76040;SHT30;64736;50.462;4.850;2023-04-07T14:28:01;11.69;69.68
76040;SHT30;64736;50.462;4.850;2023-04-07T14:30:27;11.79;69.15
76040;SHT30;64736;50.462;4.850;2023-04-07T14:32:55;12.14;68.87
76040;SHT30;64736;50.462;4.850;2023-04-07T14:35:21;12.30;69.31
76040;SHT30;64736;50.462;4.850;2023-04-07T14:37:47;12.23;69.53
76040;SHT30;64736;50.462;4.850;2023-04-07T14:40:12;11.75;71.87
76040;SHT30;64736;50.462;4.850;2023-04-07T14:42:38;11.27;74.60
76040;SHT30;64736;50.462;4.850;2023-04-07T14:45:04;10.96;74.89
76040;SHT30;64736;50.462;4.850;2023-04-07T14:47:30;10.60;76.49
76040;SHT30;64736;50.462;4.850;2023-04-07T14:49:56;11.01;76.69
76040;SHT30;64736;50.462;4.850;2023-04-07T14:52:21;10.77;78.16
76040;SHT30;64736;50.462;4.850;2023-04-07T14:54:47;10.41;79.73
76040;SHT30;64736;50.462;4.850;2023-04-07T14:57:13;10.11;80.40
76040;SHT30;64736;50.462;4.850;2023-04-07T14:59:39;10.05;81.09
76040;SHT30;64736;50.462;4.850;2023-04-07T15:02:05;10.33;82.41
76040;SHT30;64736;50.462;4.850;2023-04-07T15:04:31;10.42;81.44
76040;SHT30;64736;50.462;4.850;2023-04-07T15:06:57;11.03;81.14
76040;SHT30;64736;50.462;4.850;2023-04-07T15:09:23;10.59;80.94
76040;SHT30;64736;50.462;4.850;2023-04-07T15:11:48;10.50;81.73
76040;SHT30;64736;50.462;4.850;2023-04-07T15:14:14;10.53;79.94
76040;SHT30;64736;50.462;4.850;2023-04-07T15:16:40;10.73;80.52
76040;SHT30;64736;50.462;4.850;2023-04-07T15:19:05;10.77;79.71
76040;SHT30;64736;50.462;4.850;2023-04-07T15:21:31;10.74;78.65
76040;SHT30;64736;50.462;4.850;2023-04-07T15:23:57;10.64;78.96
76040;SHT30;64736;50.462;4.850;2023-04-07T15:26:23;10.60;77.60
76040;SHT30;64736;50.462;4.850;2023-04-07T15:28:48;10.39;78.35
76040;SHT30;64736;50.462;4.850;2023-04-07T15:31:14;10.39;78.81
76040;SHT30;64736;50.462;4.850;2023-04-07T15:33:40;10.21;77.63
76040;SHT30;64736;50.462;4.850;2023-04-07T15:36:09;10.32;77.94
76040;SHT30;64736;50.462;4.850;2023-04-07T15:38:35;10.21;77.04
76040;SHT30;64736;50.462;4.850;2023-04-07T15:41:00;10.23;77.58
76040;SHT30;64736;50.462;4.850;2023-04-07T15:43:26;10.25;77.72
76040;SHT30;64736;50.462;4.850;2023-04-07T15:45:53;10.38;77.76
76040;SHT30;64736;50.462;4.850;2023-04-07T15:48:19;10.48;79.03
76040;SHT30;64736;50.462;4.850;2023-04-07T15:50:45;10.32;79.18